createdAt,value
2019-02-21T00:00:24.036Z,961.89
2019-02-21T00:01:19.196Z,961.83
2019-02-21T00:02:19.181Z,961.87
2019-02-21T00:03:19.165Z,961.89
2019-02-21T00:04:19.145Z,961.86
2019-02-21T00:05:19.129Z,961.87
2019-02-21T00:06:19.112Z,961.85
2019-02-21T00:07:19.095Z,961.85
2019-02-21T00:08:19.077Z,961.89
2019-02-21T00:09:19.061Z,961.9
2019-02-21T00:10:19.048Z,961.86
2019-02-21T00:11:19.025Z,961.88
2019-02-21T00:12:19.011Z,961.85
2019-02-21T00:13:18.993Z,961.92
2019-02-21T00:14:18.975Z,961.93
2019-02-21T00:15:18.958Z,961.92
2019-02-21T00:16:18.939Z,961.93
2019-02-21T00:17:18.923Z,961.98
2019-02-21T00:18:18.907Z,961.96
2019-02-21T00:19:18.900Z,961.95
2019-02-21T00:20:18.872Z,961.96
2019-02-21T00:21:18.855Z,961.95
2019-02-21T00:22:18.837Z,961.96
2019-02-21T00:23:18.820Z,962.02
2019-02-21T00:24:18.806Z,961.97
2019-02-21T00:25:18.786Z,961.96
2019-02-21T00:26:18.769Z,961.96
2019-02-21T00:27:18.752Z,961.99
2019-02-21T00:28:18.735Z,962
2019-02-21T00:29:18.717Z,962.02
2019-02-21T00:30:18.701Z,962.01
2019-02-21T00:31:18.683Z,962.05
2019-02-21T00:32:18.667Z,962.02
2019-02-21T00:33:18.649Z,962.06
2019-02-21T00:34:18.633Z,962.08
2019-02-21T00:35:18.615Z,962.05
2019-02-21T00:36:18.597Z,962.05
2019-02-21T00:37:18.580Z,962.03
2019-02-21T00:38:18.563Z,962.03
2019-02-21T00:39:18.547Z,962.03
2019-02-21T00:40:18.529Z,962.06
2019-02-21T00:41:18.511Z,962.03
2019-02-21T00:42:18.497Z,962.07
2019-02-21T00:43:18.478Z,962.05
2019-02-21T00:44:18.459Z,962.09
2019-02-21T00:45:18.444Z,962.1
2019-02-21T00:46:18.427Z,962.06
2019-02-21T00:47:18.409Z,962.06
2019-02-21T00:48:18.392Z,962.05
2019-02-21T00:49:18.375Z,962.06
2019-02-21T00:50:18.358Z,962.05
2019-02-21T00:51:18.339Z,962.08
2019-02-21T00:52:18.323Z,962.06
2019-02-21T00:53:18.308Z,962.07
2019-02-21T00:54:18.289Z,962.06
2019-02-21T00:55:18.271Z,962.1
2019-02-21T00:56:18.255Z,962.12
2019-02-21T00:57:18.238Z,962.13
2019-02-21T00:58:18.222Z,962.16
2019-02-21T00:59:18.204Z,962.16
2019-02-21T01:00:18.186Z,962.21
2019-02-21T01:01:20.727Z,962.18
2019-02-21T01:02:18.150Z,962.2
2019-02-21T01:03:18.133Z,962.2
2019-02-21T01:04:18.117Z,962.22
2019-02-21T01:05:18.100Z,962.21
2019-02-21T01:06:18.085Z,962.29
2019-02-21T01:07:18.065Z,962.27
2019-02-21T01:08:18.048Z,962.27
2019-02-21T01:09:18.030Z,962.2
2019-02-21T01:10:18.014Z,962.25
2019-02-21T01:11:18.005Z,962.24
2019-02-21T01:12:17.979Z,962.23
2019-02-21T01:13:17.963Z,962.25
2019-02-21T01:14:17.945Z,962.29
2019-02-21T01:15:17.929Z,962.29
2019-02-21T01:16:17.919Z,962.28
2019-02-21T01:17:17.893Z,962.3
2019-02-21T01:18:17.875Z,962.28
2019-02-21T01:19:17.859Z,962.28
2019-02-21T01:20:17.844Z,962.26
2019-02-21T01:21:17.826Z,962.24
2019-02-21T01:22:17.809Z,962.21
2019-02-21T01:23:17.791Z,962.25
2019-02-21T01:24:17.775Z,962.22
2019-02-21T01:25:17.757Z,962.21
2019-02-21T01:26:17.895Z,962.2
2019-02-21T01:27:17.727Z,962.23
2019-02-21T01:28:17.705Z,962.16
2019-02-21T01:29:17.688Z,962.18
2019-02-21T01:30:17.671Z,962.16
2019-02-21T01:31:17.657Z,962.19
2019-02-21T01:32:17.637Z,962.17
2019-02-21T01:33:17.618Z,962.16
2019-02-21T01:34:17.603Z,962.19
2019-02-21T01:35:17.586Z,962.16
2019-02-21T01:36:17.568Z,962.16
2019-02-21T01:37:17.551Z,962.2
2019-02-21T01:38:17.539Z,962.17
2019-02-21T01:39:17.516Z,962.14
2019-02-21T01:40:17.499Z,962.21
2019-02-21T01:41:17.487Z,962.18
2019-02-21T01:42:17.463Z,962.17
2019-02-21T01:43:17.448Z,962.17
2019-02-21T01:44:17.430Z,962.17
2019-02-21T01:45:17.413Z,962.19
2019-02-21T01:46:17.397Z,962.23
2019-02-21T01:47:17.379Z,962.22
2019-02-21T01:48:17.362Z,962.22
2019-02-21T01:49:17.349Z,962.2
2019-02-21T01:50:17.328Z,962.18
2019-02-21T01:51:17.314Z,962.17
2019-02-21T01:52:17.300Z,962.17
2019-02-21T01:53:17.296Z,962.12
2019-02-21T01:54:17.258Z,962.08
2019-02-21T01:55:17.241Z,962.14
2019-02-21T01:56:17.224Z,962.07
2019-02-21T01:57:17.207Z,962.1
2019-02-21T01:58:17.190Z,962.1
2019-02-21T01:59:17.174Z,962.13
2019-02-21T02:00:17.160Z,962.08
2019-02-21T02:01:17.143Z,962.07
2019-02-21T02:02:17.133Z,962.05
2019-02-21T02:03:17.106Z,962.05
2019-02-21T02:04:17.218Z,962.07
2019-02-21T02:05:17.069Z,962.01
2019-02-21T02:06:17.052Z,962.03
2019-02-21T02:07:17.035Z,962.03
2019-02-21T02:08:17.017Z,962.04
2019-02-21T02:09:17.000Z,962.04
2019-02-21T02:10:16.985Z,962.03
2019-02-21T02:11:16.972Z,962.03
2019-02-21T02:12:16.947Z,962.03
2019-02-21T02:13:24.357Z,962.06
2019-02-21T02:14:16.913Z,962.09
2019-02-21T02:15:16.896Z,962.1
2019-02-21T02:16:16.879Z,962.07
2019-02-21T02:17:16.862Z,962.08
2019-02-21T02:18:16.846Z,962.03
2019-02-21T02:19:16.826Z,962.04
2019-02-21T02:20:16.809Z,962
2019-02-21T02:21:16.791Z,962.04
2019-02-21T02:22:16.775Z,962.04
2019-02-21T02:23:16.755Z,962.02
2019-02-21T02:24:16.789Z,962.05
2019-02-21T02:25:16.728Z,962.05
2019-02-21T02:26:16.706Z,962.02
2019-02-21T02:27:16.687Z,962.02
2019-02-21T02:28:16.670Z,961.98
2019-02-21T02:29:16.654Z,962.02
2019-02-21T02:30:16.640Z,961.98
2019-02-21T02:31:22.417Z,961.99
2019-02-21T02:32:16.601Z,961.96
2019-02-21T02:33:16.585Z,961.97
2019-02-21T02:34:16.566Z,961.97
2019-02-21T02:35:16.549Z,961.97
2019-02-21T02:36:16.531Z,961.98
2019-02-21T02:37:16.514Z,961.95
2019-02-21T02:38:16.496Z,961.96
2019-02-21T02:39:16.480Z,961.93
2019-02-21T02:40:16.464Z,961.91
2019-02-21T02:41:16.444Z,961.94
2019-02-21T02:42:16.428Z,961.92
2019-02-21T02:43:16.410Z,961.92
2019-02-21T02:44:16.394Z,961.91
2019-02-21T02:45:16.378Z,961.92
2019-02-21T02:46:16.359Z,961.88
2019-02-21T02:47:16.341Z,961.86
2019-02-21T02:48:16.328Z,961.9
2019-02-21T02:49:16.307Z,961.89
2019-02-21T02:50:16.538Z,961.96
2019-02-21T02:51:16.278Z,961.89
2019-02-21T02:52:16.255Z,961.94
2019-02-21T02:53:16.235Z,961.93
2019-02-21T02:54:16.297Z,961.94
2019-02-21T02:55:16.202Z,961.93
2019-02-21T02:56:16.186Z,961.93
2019-02-21T02:57:16.169Z,961.9
2019-02-21T02:58:16.152Z,961.92
2019-02-21T02:59:16.133Z,961.91
2019-02-21T03:00:16.119Z,961.93
2019-02-21T03:01:16.099Z,961.9
2019-02-21T03:02:16.081Z,961.85
2019-02-21T03:03:16.063Z,961.88
2019-02-21T03:04:16.096Z,961.86
2019-02-21T03:05:16.029Z,961.86
2019-02-21T03:06:16.010Z,961.87
2019-02-21T03:07:15.993Z,961.87
2019-02-21T03:08:15.977Z,961.87
2019-02-21T03:09:15.959Z,961.85
2019-02-21T03:10:15.939Z,961.84
2019-02-21T03:11:15.934Z,961.82
2019-02-21T03:12:15.907Z,961.85
2019-02-21T03:13:15.889Z,961.82
2019-02-21T03:14:15.871Z,961.81
2019-02-21T03:15:15.853Z,961.86
2019-02-21T03:16:15.836Z,961.88
2019-02-21T03:17:15.818Z,961.87
2019-02-21T03:18:15.810Z,961.88
2019-02-21T03:19:15.784Z,961.89
2019-02-21T03:20:15.766Z,961.89
2019-02-21T03:21:15.747Z,961.9
2019-02-21T03:22:15.731Z,961.92
2019-02-21T03:23:15.714Z,961.93
2019-02-21T03:24:15.696Z,961.91
2019-02-21T03:25:15.693Z,961.96
2019-02-21T03:26:15.662Z,961.99
2019-02-21T03:27:15.644Z,961.94
2019-02-21T03:28:15.627Z,961.92
2019-02-21T03:29:15.609Z,961.93
2019-02-21T03:30:15.603Z,961.89
2019-02-21T03:31:15.577Z,961.86
2019-02-21T03:32:15.559Z,961.89
2019-02-21T03:33:15.543Z,961.8
2019-02-21T03:34:15.535Z,961.81
2019-02-21T03:35:15.509Z,961.77
2019-02-21T03:36:15.498Z,961.76
2019-02-21T03:37:15.474Z,961.76
2019-02-21T03:38:15.456Z,961.77
2019-02-21T03:39:15.438Z,961.82
2019-02-21T03:40:15.429Z,961.78
2019-02-21T03:41:15.403Z,961.78
2019-02-21T03:42:15.386Z,961.73
2019-02-21T03:43:15.366Z,961.7
2019-02-21T03:44:15.351Z,961.69
2019-02-21T03:45:15.336Z,961.66
2019-02-21T03:46:15.317Z,961.71
2019-02-21T03:47:15.299Z,961.72
2019-02-21T03:48:15.285Z,961.71
2019-02-21T03:49:15.267Z,961.72
2019-02-21T03:50:15.252Z,961.73
2019-02-21T03:51:15.231Z,961.77
2019-02-21T03:52:15.214Z,961.77
2019-02-21T03:53:15.197Z,961.77
2019-02-21T03:54:15.180Z,961.76
2019-02-21T03:55:15.165Z,961.78
2019-02-21T03:56:15.145Z,961.83
2019-02-21T03:57:15.129Z,961.81
2019-02-21T03:58:15.111Z,961.84
2019-02-21T03:59:15.106Z,961.82
2019-02-21T04:00:15.080Z,961.88
2019-02-21T04:01:15.061Z,961.91
2019-02-21T04:02:15.055Z,961.86
2019-02-21T04:03:15.027Z,961.91
2019-02-21T04:04:15.019Z,961.91
2019-02-21T04:05:14.995Z,961.83
2019-02-21T04:06:14.976Z,961.85
2019-02-21T04:07:14.960Z,961.87
2019-02-21T04:08:14.943Z,961.93
2019-02-21T04:09:14.927Z,961.89
2019-02-21T04:10:14.909Z,961.85
2019-02-21T04:11:14.893Z,961.88
2019-02-21T04:12:14.886Z,961.87
2019-02-21T04:13:15.338Z,961.91
2019-02-21T04:14:14.841Z,961.86
2019-02-21T04:15:14.825Z,961.85
2019-02-21T04:16:14.808Z,961.8
2019-02-21T04:17:14.792Z,961.84
2019-02-21T04:18:14.783Z,961.83
2019-02-21T04:19:14.759Z,961.84
2019-02-21T04:20:14.740Z,961.78
2019-02-21T04:21:14.724Z,961.83
2019-02-21T04:22:14.708Z,961.77
2019-02-21T04:23:14.691Z,961.79
2019-02-21T04:24:14.674Z,961.76
2019-02-21T04:25:14.668Z,961.78
2019-02-21T04:26:14.640Z,961.77
2019-02-21T04:27:14.623Z,961.78
2019-02-21T04:28:14.607Z,961.82
2019-02-21T04:29:14.590Z,961.86
2019-02-21T04:30:14.575Z,961.88
2019-02-21T04:31:14.560Z,961.92
2019-02-21T04:32:16.719Z,961.86
2019-02-21T04:33:14.525Z,961.93
2019-02-21T04:34:14.509Z,961.89
2019-02-21T04:35:14.495Z,961.94
2019-02-21T04:36:14.476Z,961.86
2019-02-21T04:37:14.464Z,961.89
2019-02-21T04:38:14.440Z,961.9
2019-02-21T04:39:14.426Z,961.92
2019-02-21T04:40:14.411Z,961.95
2019-02-21T04:41:14.393Z,961.98
2019-02-21T04:42:14.453Z,961.98
2019-02-21T04:43:14.357Z,961.99
2019-02-21T04:44:14.352Z,961.96
2019-02-21T04:45:14.324Z,961.95
2019-02-21T04:46:14.307Z,961.95
2019-02-21T04:47:14.292Z,961.97
2019-02-21T04:48:14.295Z,961.98
2019-02-21T04:49:14.258Z,961.93
2019-02-21T04:50:14.240Z,961.92
2019-02-21T04:51:14.234Z,961.96
2019-02-21T04:52:14.207Z,961.98
2019-02-21T04:53:14.194Z,961.92
2019-02-21T04:54:14.174Z,961.95
2019-02-21T04:55:14.158Z,961.99
2019-02-21T04:56:14.142Z,961.96
2019-02-21T04:57:14.123Z,962.02
2019-02-21T04:58:14.107Z,961.98
2019-02-21T04:59:14.091Z,962
2019-02-21T05:00:14.080Z,961.97
2019-02-21T05:01:14.056Z,961.96
2019-02-21T05:02:14.047Z,961.99
2019-02-21T05:03:14.025Z,961.95
2019-02-21T05:04:14.008Z,961.97
2019-02-21T05:05:13.991Z,961.98
2019-02-21T05:06:13.975Z,961.98
2019-02-21T05:07:13.958Z,961.94
2019-02-21T05:08:13.942Z,961.98
2019-02-21T05:09:13.932Z,962.02
2019-02-21T05:10:13.908Z,961.95
2019-02-21T05:11:13.892Z,961.96
2019-02-21T05:12:13.875Z,961.95
2019-02-21T05:13:13.860Z,961.94
2019-02-21T05:14:13.843Z,961.9
2019-02-21T05:15:14.268Z,961.9
2019-02-21T05:16:13.810Z,961.92
2019-02-21T05:17:13.793Z,961.94
2019-02-21T05:18:13.781Z,961.94
2019-02-21T05:19:13.760Z,961.95
2019-02-21T05:20:13.743Z,961.94
2019-02-21T05:21:13.727Z,961.99
2019-02-21T05:22:13.715Z,961.88
2019-02-21T05:23:13.694Z,961.89
2019-02-21T05:24:13.678Z,961.81
2019-02-21T05:25:13.660Z,961.85
2019-02-21T05:26:13.644Z,961.86
2019-02-21T05:27:13.632Z,961.87
2019-02-21T05:28:13.611Z,961.84
2019-02-21T05:29:13.593Z,961.9
2019-02-21T05:30:14.017Z,961.87
2019-02-21T05:31:13.574Z,961.84
2019-02-21T05:32:13.544Z,961.89
2019-02-21T05:33:13.528Z,961.91
2019-02-21T05:34:13.512Z,961.89
2019-02-21T05:35:13.495Z,961.87
2019-02-21T05:36:13.477Z,961.91
2019-02-21T05:37:13.467Z,961.91
2019-02-21T05:38:13.456Z,961.93
2019-02-21T05:39:13.432Z,961.92
2019-02-21T05:40:13.413Z,961.89
2019-02-21T05:41:13.397Z,961.89
2019-02-21T05:42:13.380Z,961.89
2019-02-21T05:43:13.364Z,961.94
2019-02-21T05:44:13.350Z,961.94
2019-02-21T05:45:13.335Z,961.95
2019-02-21T05:46:13.315Z,962.01
2019-02-21T05:47:13.296Z,962.01
2019-02-21T05:48:13.284Z,962.03
2019-02-21T05:49:13.265Z,962.02
2019-02-21T05:50:13.249Z,962.05
2019-02-21T05:51:13.238Z,962.06
2019-02-21T05:52:13.218Z,962.09
2019-02-21T05:53:13.201Z,962.11
2019-02-21T05:54:13.184Z,962.12
2019-02-21T05:55:13.166Z,962.12
2019-02-21T05:56:13.153Z,962.08
2019-02-21T05:57:13.135Z,962.1
2019-02-21T05:58:13.117Z,962.09
2019-02-21T05:59:13.102Z,962.13
2019-02-21T06:00:13.086Z,962.17
2019-02-21T06:01:13.069Z,962.19
2019-02-21T06:02:13.052Z,962.2
2019-02-21T06:03:13.035Z,962.18
2019-02-21T06:04:13.026Z,962.12
2019-02-21T06:05:13.004Z,962.17
2019-02-21T06:06:12.997Z,962.12
2019-02-21T06:07:12.971Z,962.13
2019-02-21T06:08:12.955Z,962.12
2019-02-21T06:09:12.945Z,962.19
2019-02-21T06:10:12.923Z,962.13
2019-02-21T06:11:12.906Z,962.19
2019-02-21T06:12:12.890Z,962.22
2019-02-21T06:13:12.873Z,962.25
2019-02-21T06:14:12.856Z,962.19
2019-02-21T06:15:12.841Z,962.2
2019-02-21T06:16:12.822Z,962.16
2019-02-21T06:17:12.808Z,962.15
2019-02-21T06:18:12.791Z,962.16
2019-02-21T06:19:12.775Z,962.19
2019-02-21T06:20:12.763Z,962.17
2019-02-21T06:21:12.744Z,962.21
2019-02-21T06:22:12.725Z,962.2
2019-02-21T06:23:12.709Z,962.23
2019-02-21T06:24:12.693Z,962.19
2019-02-21T06:25:12.678Z,962.22
2019-02-21T06:26:12.665Z,962.21
2019-02-21T06:27:12.643Z,962.22
2019-02-21T06:28:12.690Z,962.21
2019-02-21T06:29:12.611Z,962.23
2019-02-21T06:30:12.593Z,962.22
2019-02-21T06:31:12.580Z,962.19
2019-02-21T06:32:14.395Z,962.24
2019-02-21T06:33:12.545Z,962.26
2019-02-21T06:34:12.528Z,962.29
2019-02-21T06:35:12.511Z,962.33
2019-02-21T06:36:12.495Z,962.33
2019-02-21T06:37:12.849Z,962.35
2019-02-21T06:38:12.462Z,962.39
2019-02-21T06:39:12.446Z,962.42
2019-02-21T06:40:12.430Z,962.38
2019-02-21T06:41:12.413Z,962.4
2019-02-21T06:42:12.396Z,962.42
2019-02-21T06:43:12.381Z,962.44
2019-02-21T06:44:12.369Z,962.42
2019-02-21T06:45:12.349Z,962.43
2019-02-21T06:46:13.675Z,962.42
2019-02-21T06:47:12.315Z,962.43
2019-02-21T06:48:12.299Z,962.41
2019-02-21T06:49:12.282Z,962.39
2019-02-21T06:50:14.350Z,962.41
2019-02-21T06:51:12.250Z,962.38
2019-02-21T06:52:12.232Z,962.4
2019-02-21T06:53:12.215Z,962.41
2019-02-21T06:54:12.200Z,962.36
2019-02-21T06:55:12.184Z,962.35
2019-02-21T06:56:12.167Z,962.36
2019-02-21T06:57:12.150Z,962.35
2019-02-21T06:58:12.137Z,962.36
2019-02-21T06:59:12.118Z,962.32
2019-02-21T07:00:12.103Z,962.34
2019-02-21T07:01:12.085Z,962.31
2019-02-21T07:02:13.598Z,962.39
2019-02-21T07:03:15.613Z,962.4
2019-02-21T07:04:12.034Z,962.35
2019-02-21T07:05:12.019Z,962.39
2019-02-21T07:06:12.023Z,962.44
2019-02-21T07:07:11.987Z,962.4
2019-02-21T07:08:11.969Z,962.46
2019-02-21T07:09:11.955Z,962.46
2019-02-21T07:10:11.936Z,962.47
2019-02-21T07:11:11.924Z,962.45
2019-02-21T07:12:11.904Z,962.5
2019-02-21T07:13:11.889Z,962.46
2019-02-21T07:14:11.871Z,962.42
2019-02-21T07:15:11.855Z,962.4
2019-02-21T07:16:13.051Z,962.38
2019-02-21T07:17:11.824Z,962.36
2019-02-21T07:18:11.806Z,962.34
2019-02-21T07:19:11.791Z,962.29
2019-02-21T07:20:12.947Z,962.31
2019-02-21T07:21:13.273Z,962.31
2019-02-21T07:22:17.617Z,962.32
2019-02-21T07:23:11.726Z,962.32
2019-02-21T07:24:11.711Z,962.33
2019-02-21T07:25:11.694Z,962.35
2019-02-21T07:26:11.677Z,962.32
2019-02-21T07:27:11.662Z,962.41
2019-02-21T07:28:15.447Z,962.33
2019-02-21T07:29:11.631Z,962.34
2019-02-21T07:30:19.433Z,962.34
2019-02-21T07:31:11.598Z,962.35
2019-02-21T07:32:11.584Z,962.35
2019-02-21T07:33:11.569Z,962.33
2019-02-21T07:34:11.551Z,962.3
2019-02-21T07:35:11.536Z,962.34
2019-02-21T07:36:11.520Z,962.34
2019-02-21T07:37:18.338Z,962.33
2019-02-21T07:38:11.497Z,962.35
2019-02-21T07:39:17.150Z,962.39
2019-02-21T07:40:19.663Z,962.39
2019-02-21T07:41:11.476Z,962.35
2019-02-21T07:42:11.429Z,962.34
2019-02-21T07:43:12.796Z,962.33
2019-02-21T07:44:12.497Z,962.28
2019-02-21T07:45:11.466Z,962.27
2019-02-21T07:46:11.368Z,962.29
2019-02-21T07:47:11.351Z,962.26
2019-02-21T07:48:11.336Z,962.26
2019-02-21T07:49:11.321Z,962.26
2019-02-21T07:50:11.305Z,962.26
2019-02-21T07:51:13.375Z,962.32
2019-02-21T07:52:11.274Z,962.35
2019-02-21T07:53:11.259Z,962.37
2019-02-21T07:54:11.245Z,962.37
2019-02-21T07:55:11.230Z,962.4
2019-02-21T07:56:11.217Z,962.42
2019-02-21T07:57:11.200Z,962.4
2019-02-21T07:58:11.185Z,962.4
2019-02-21T07:59:12.086Z,962.44
2019-02-21T08:00:11.155Z,962.43
2019-02-21T08:01:11.140Z,962.47
2019-02-21T08:02:11.127Z,962.47
2019-02-21T08:03:11.111Z,962.46
2019-02-21T08:04:11.096Z,962.53
2019-02-21T08:05:11.083Z,962.51
2019-02-21T08:06:11.064Z,962.54
2019-02-21T08:07:11.054Z,962.57
2019-02-21T08:08:11.037Z,962.55
2019-02-21T08:09:11.026Z,962.54
2019-02-21T08:10:11.005Z,962.53
2019-02-21T08:11:10.992Z,962.56
2019-02-21T08:12:10.978Z,962.59
2019-02-21T08:13:10.962Z,962.6
2019-02-21T08:14:10.948Z,962.57
2019-02-21T08:15:11.842Z,962.64
2019-02-21T08:16:12.468Z,962.69
2019-02-21T08:17:10.905Z,962.66
2019-02-21T08:18:10.889Z,962.71
2019-02-21T08:19:10.876Z,962.76
2019-02-21T08:20:10.871Z,962.76
2019-02-21T08:21:10.848Z,962.74
2019-02-21T08:22:10.834Z,962.76
2019-02-21T08:23:11.131Z,962.73
2019-02-21T08:24:10.812Z,962.77
2019-02-21T08:25:10.787Z,962.77
2019-02-21T08:26:10.776Z,962.79
2019-02-21T08:27:10.760Z,962.78
2019-02-21T08:28:10.760Z,962.81
2019-02-21T08:29:10.734Z,962.82
2019-02-21T08:30:10.721Z,962.88
2019-02-21T08:31:10.705Z,962.81
2019-02-21T08:32:10.690Z,962.81
2019-02-21T08:33:10.675Z,962.8
2019-02-21T08:34:10.662Z,962.83
2019-02-21T08:35:10.648Z,962.8
2019-02-21T08:36:10.634Z,962.82
2019-02-21T08:37:10.632Z,962.77
2019-02-21T08:38:12.071Z,962.86
2019-02-21T08:39:10.593Z,962.86
2019-02-21T08:40:10.581Z,962.87
2019-02-21T08:41:10.569Z,962.87
2019-02-21T08:42:10.553Z,962.88
2019-02-21T08:43:10.538Z,962.86
2019-02-21T08:44:10.527Z,962.87
2019-02-21T08:45:10.512Z,962.83
2019-02-21T08:46:10.497Z,962.86
2019-02-21T08:47:10.484Z,962.83
2019-02-21T08:48:13.204Z,962.84
2019-02-21T08:49:10.460Z,962.81
2019-02-21T08:50:10.443Z,962.84
2019-02-21T08:51:10.428Z,962.82
2019-02-21T08:52:10.415Z,962.83
2019-02-21T08:53:12.920Z,962.83
2019-02-21T08:54:11.444Z,962.83
2019-02-21T08:55:10.374Z,962.85
2019-02-21T08:56:10.362Z,962.87
2019-02-21T08:57:10.352Z,962.87
2019-02-21T08:58:10.334Z,962.89
2019-02-21T08:59:10.322Z,962.94
2019-02-21T09:00:10.996Z,962.92
2019-02-21T09:01:10.293Z,962.91
2019-02-21T09:02:10.280Z,962.97
2019-02-21T09:03:10.265Z,963.02
2019-02-21T09:04:24.089Z,963.01
2019-02-21T09:05:10.239Z,963.01
2019-02-21T09:06:10.226Z,962.96
2019-02-21T09:07:10.212Z,963
2019-02-21T09:08:10.209Z,962.98
2019-02-21T09:09:10.220Z,962.96
2019-02-21T09:10:10.183Z,962.97
2019-02-21T09:11:10.212Z,962.99
2019-02-21T09:12:10.197Z,962.99
2019-02-21T09:13:10.183Z,963.02
2019-02-21T09:14:10.211Z,963
2019-02-21T09:15:10.196Z,963.05
2019-02-21T09:16:10.183Z,963.08
2019-02-21T09:17:10.213Z,963.09
2019-02-21T09:18:10.198Z,963.06
2019-02-21T09:19:10.183Z,963.07
2019-02-21T09:20:10.215Z,963.06
2019-02-21T09:21:10.201Z,963.1
2019-02-21T09:22:10.186Z,963.08
2019-02-21T09:23:10.217Z,963.11
2019-02-21T09:24:10.203Z,963.12
2019-02-21T09:25:10.191Z,963.14
2019-02-21T09:26:10.220Z,963.12
2019-02-21T09:27:10.204Z,963.1
2019-02-21T09:28:10.192Z,963.07
2019-02-21T09:29:10.221Z,963.1
2019-02-21T09:30:10.207Z,963.07
2019-02-21T09:31:10.193Z,963.11
2019-02-21T09:32:10.221Z,963.09
2019-02-21T09:33:17.255Z,963.02
2019-02-21T09:34:20.489Z,962.98
2019-02-21T09:35:10.222Z,963.01
2019-02-21T09:36:10.207Z,962.98
2019-02-21T09:37:10.194Z,963
2019-02-21T09:38:10.223Z,963
2019-02-21T09:39:10.209Z,962.98
2019-02-21T09:40:10.820Z,962.97
2019-02-21T09:41:10.224Z,962.99
2019-02-21T09:42:10.209Z,962.98
2019-02-21T09:43:10.196Z,963.03
2019-02-21T09:44:10.242Z,963.01
2019-02-21T09:45:10.212Z,962.99
2019-02-21T09:46:10.199Z,963
2019-02-21T09:47:10.224Z,963.01
2019-02-21T09:48:11.992Z,963
2019-02-21T09:49:10.197Z,963.03
2019-02-21T09:50:10.227Z,963.08
2019-02-21T09:51:10.218Z,963.04
2019-02-21T09:52:10.198Z,963.03
2019-02-21T09:53:10.228Z,963
2019-02-21T09:54:10.213Z,962.99
2019-02-21T09:55:10.201Z,963.04
2019-02-21T09:56:10.235Z,963.01
2019-02-21T09:57:13.046Z,963.01
2019-02-21T09:58:10.218Z,963.02
2019-02-21T09:59:10.191Z,963.01
2019-02-21T10:00:10.177Z,963.01
2019-02-21T10:01:10.165Z,963.02
2019-02-21T10:02:10.153Z,962.94
2019-02-21T10:03:10.138Z,962.98
2019-02-21T10:04:10.127Z,962.98
2019-02-21T10:05:10.112Z,962.98
2019-02-21T10:06:10.107Z,962.94
2019-02-21T10:07:10.086Z,962.98
2019-02-21T10:08:10.074Z,963.01
2019-02-21T10:09:10.061Z,962.97
2019-02-21T10:10:10.049Z,962.97
2019-02-21T10:11:11.412Z,962.99
2019-02-21T10:12:10.035Z,962.98
2019-02-21T10:13:10.009Z,962.98
2019-02-21T10:14:09.997Z,963.02
2019-02-21T10:15:09.984Z,963.04
2019-02-21T10:16:09.972Z,963.04
2019-02-21T10:17:09.959Z,962.99
2019-02-21T10:18:09.945Z,963
2019-02-21T10:19:09.932Z,962.93
2019-02-21T10:20:09.920Z,962.98
2019-02-21T10:21:09.907Z,963
2019-02-21T10:22:09.894Z,963.01
2019-02-21T10:23:09.883Z,962.94
2019-02-21T10:24:09.869Z,963.02
2019-02-21T10:25:09.856Z,962.96
2019-02-21T10:26:09.848Z,962.94
2019-02-21T10:27:09.834Z,962.95
2019-02-21T10:28:09.820Z,962.95
2019-02-21T10:29:09.807Z,962.97
2019-02-21T10:30:09.796Z,962.96
2019-02-21T10:31:09.785Z,962.94
2019-02-21T10:32:09.771Z,962.93
2019-02-21T10:33:09.760Z,962.97
2019-02-21T10:34:09.749Z,962.95
2019-02-21T10:35:09.737Z,962.95
2019-02-21T10:36:09.723Z,962.92
2019-02-21T10:37:09.716Z,962.88
2019-02-21T10:38:09.702Z,962.87
2019-02-21T10:39:09.689Z,962.88
2019-02-21T10:40:09.687Z,962.83
2019-02-21T10:41:09.666Z,962.87
2019-02-21T10:42:09.655Z,962.74
2019-02-21T10:43:09.644Z,962.8
2019-02-21T10:44:09.634Z,962.8
2019-02-21T10:45:09.621Z,962.8
2019-02-21T10:46:09.609Z,962.81
2019-02-21T10:47:09.597Z,962.82
2019-02-21T10:48:09.597Z,962.8
2019-02-21T10:49:09.575Z,962.77
2019-02-21T10:50:09.563Z,962.78
2019-02-21T10:51:09.551Z,962.78
2019-02-21T10:52:09.540Z,962.73
2019-02-21T10:53:09.528Z,962.7
2019-02-21T10:54:09.518Z,962.71
2019-02-21T10:55:09.504Z,962.68
2019-02-21T10:56:09.494Z,962.68
2019-02-21T10:57:09.482Z,962.65
2019-02-21T10:58:09.472Z,962.69
2019-02-21T10:59:09.460Z,962.63
2019-02-21T11:00:09.445Z,962.63
2019-02-21T11:01:09.438Z,962.62
2019-02-21T11:02:09.422Z,962.6
2019-02-21T11:03:09.410Z,962.61
2019-02-21T11:04:09.397Z,962.6
2019-02-21T11:05:09.385Z,962.6
2019-02-21T11:06:09.374Z,962.61
2019-02-21T11:07:09.366Z,962.57
2019-02-21T11:08:09.350Z,962.56
2019-02-21T11:09:09.337Z,962.52
2019-02-21T11:10:09.325Z,962.53
2019-02-21T11:11:09.316Z,962.54
2019-02-21T11:12:09.302Z,962.52
2019-02-21T11:13:09.290Z,962.57
2019-02-21T11:14:09.277Z,962.55
2019-02-21T11:15:09.270Z,962.56
2019-02-21T11:16:09.254Z,962.56
2019-02-21T11:17:09.248Z,962.62
2019-02-21T11:18:09.231Z,962.55
2019-02-21T11:19:09.219Z,962.57
2019-02-21T11:20:09.206Z,962.59
2019-02-21T11:21:09.196Z,962.59
2019-02-21T11:22:09.184Z,962.59
2019-02-21T11:23:09.171Z,962.57
2019-02-21T11:24:09.158Z,962.56
2019-02-21T11:25:09.147Z,962.52
2019-02-21T11:26:09.137Z,962.53
2019-02-21T11:27:09.122Z,962.55
2019-02-21T11:28:09.111Z,962.51
2019-02-21T11:29:09.099Z,962.52
2019-02-21T11:30:09.086Z,962.5
2019-02-21T11:31:09.076Z,962.51
2019-02-21T11:32:09.063Z,962.5
2019-02-21T11:33:09.051Z,962.48
2019-02-21T11:34:09.040Z,962.45
2019-02-21T11:35:09.027Z,962.37
2019-02-21T11:36:09.015Z,962.39
2019-02-21T11:37:09.004Z,962.42
2019-02-21T11:38:08.992Z,962.39
2019-02-21T11:39:08.979Z,962.39
2019-02-21T11:40:08.966Z,962.44
2019-02-21T11:41:08.955Z,962.41
2019-02-21T11:42:08.942Z,962.4
2019-02-21T11:43:08.929Z,962.41
2019-02-21T11:44:08.917Z,962.43
2019-02-21T11:45:08.906Z,962.42
2019-02-21T11:46:08.893Z,962.43
2019-02-21T11:47:08.881Z,962.44
2019-02-21T11:48:09.334Z,962.36
2019-02-21T11:49:08.856Z,962.35
2019-02-21T11:50:08.844Z,962.36
2019-02-21T11:51:08.833Z,962.36
2019-02-21T11:52:10.311Z,962.3
2019-02-21T11:53:08.811Z,962.34
2019-02-21T11:54:08.794Z,962.37
2019-02-21T11:55:08.788Z,962.39
2019-02-21T11:56:08.770Z,962.36
2019-02-21T11:57:08.757Z,962.37
2019-02-21T11:58:08.745Z,962.37
2019-02-21T11:59:08.733Z,962.37
2019-02-21T12:00:08.719Z,962.36
2019-02-21T12:01:08.705Z,962.37
2019-02-21T12:02:08.694Z,962.36
2019-02-21T12:03:08.683Z,962.33
2019-02-21T12:04:08.668Z,962.3
2019-02-21T12:05:17.007Z,962.3
2019-02-21T12:06:08.644Z,962.33
2019-02-21T12:07:08.630Z,962.38
2019-02-21T12:08:08.616Z,962.31
2019-02-21T12:09:08.604Z,962.32
2019-02-21T12:10:08.608Z,962.34
2019-02-21T12:11:08.580Z,962.31
2019-02-21T12:12:10.365Z,962.35
2019-02-21T12:13:08.553Z,962.35
2019-02-21T12:14:08.545Z,962.33
2019-02-21T12:15:08.528Z,962.29
2019-02-21T12:16:08.516Z,962.36
2019-02-21T12:17:08.500Z,962.3
2019-02-21T12:18:08.487Z,962.37
2019-02-21T12:19:08.550Z,962.31
2019-02-21T12:20:08.461Z,962.33
2019-02-21T12:21:08.447Z,962.35
2019-02-21T12:22:08.433Z,962.42
2019-02-21T12:23:08.419Z,962.39
2019-02-21T12:24:08.407Z,962.36
2019-02-21T12:25:08.394Z,962.31
2019-02-21T12:26:08.379Z,962.33
2019-02-21T12:27:08.367Z,962.38
2019-02-21T12:28:08.356Z,962.36
2019-02-21T12:29:08.339Z,962.33
2019-02-21T12:30:08.326Z,962.37
2019-02-21T12:31:08.315Z,962.3